sensor_id;sensor_type;location;lat;lon;timestamp;temperature;humidity
56298;DHT22;42208;6.376;-10.782;2023-04-26T00:02:05;25.90;99.90
56298;DHT22;42208;6.376;-10.782;2023-04-26T00:04:33;25.80;99.90
56298;DHT22;42208;6.376;-10.782;2023-04-26T00:07:01;25.80;99.90
56298;DHT22;42208;6.376;-10.782;2023-04-26T00:09:30;25.70;99.90
56298;DHT22;42208;6.376;-10.782;2023-04-26T00:11:58;25.60;99.90
56298;DHT22;42208;6.376;-10.782;2023-04-26T00:14:27;25.60;99.90
56298;DHT22;42208;6.376;-10.782;2023-04-26T00:16:55;25.50;99.90
56298;DHT22;42208;6.376;-10.782;2023-04-26T00:19:23;25.50;99.90
56298;DHT22;42208;6.376;-10.782;2023-04-26T00:21:52;25.50;99.90
56298;DHT22;42208;6.376;-10.782;2023-04-26T00:24:20;25.50;99.90
56298;DHT22;42208;6.376;-10.782;2023-04-26T00:26:48;25.60;99.90
56298;DHT22;42208;6.376;-10.782;2023-04-26T00:29:16;25.30;99.90
56298;DHT22;42208;6.376;-10.782;2023-04-26T00:31:45;25.30;99.90
56298;DHT22;42208;6.376;-10.782;2023-04-26T00:34:13;25.40;99.90
56298;DHT22;42208;6.376;-10.782;2023-04-26T00:36:42;25.40;99.90
56298;DHT22;42208;6.376;-10.782;2023-04-26T00:39:10;25.30;99.90
56298;DHT22;42208;6.376;-10.782;2023-04-26T00:41:39;25.40;99.90
56298;DHT22;42208;6.376;-10.782;2023-04-26T00:44:08;25.40;99.90
56298;DHT22;42208;6.376;-10.782;2023-04-26T00:46:36;25.40;99.90
56298;DHT22;42208;6.376;-10.782;2023-04-26T00:49:04;25.40;99.90
56298;DHT22;42208;6.376;-10.782;2023-04-26T00:51:33;25.50;99.90
56298;DHT22;42208;6.376;-10.782;2023-04-26T00:54:02;25.40;99.90
56298;DHT22;42208;6.376;-10.782;2023-04-26T00:56:31;25.40;99.90
56298;DHT22;42208;6.376;-10.782;2023-04-26T00:58:59;25.50;99.90
56298;DHT22;42208;6.376;-10.782;2023-04-26T01:01:28;25.40;99.90
56298;DHT22;42208;6.376;-10.782;2023-04-26T01:03:56;25.40;99.90
56298;DHT22;42208;6.376;-10.782;2023-04-26T01:06:25;25.40;99.90
56298;DHT22;42208;6.376;-10.782;2023-04-26T01:08:56;25.30;99.90
56298;DHT22;42208;6.376;-10.782;2023-04-26T01:11:25;25.30;99.90
56298;DHT22;42208;6.376;-10.782;2023-04-26T01:13:53;25.10;99.90
56298;DHT22;42208;6.376;-10.782;2023-04-26T01:16:23;25.20;99.90
56298;DHT22;42208;6.376;-10.782;2023-04-26T01:18:52;25.20;99.90
56298;DHT22;42208;6.376;-10.782;2023-04-26T01:21:22;25.20;99.90
56298;DHT22;42208;6.376;-10.782;2023-04-26T01:23:51;25.20;99.90
56298;DHT22;42208;6.376;-10.782;2023-04-26T01:26:19;25.10;99.90
56298;DHT22;42208;6.376;-10.782;2023-04-26T01:28:47;25.10;99.90
56298;DHT22;42208;6.376;-10.782;2023-04-26T01:31:15;25.10;99.90
56298;DHT22;42208;6.376;-10.782;2023-04-26T01:33:44;25.10;99.90
56298;DHT22;42208;6.376;-10.782;2023-04-26T01:36:12;25.00;99.90
56298;DHT22;42208;6.376;-10.782;2023-04-26T01:38:40;25.10;99.90
56298;DHT22;42208;6.376;-10.782;2023-04-26T01:41:09;25.10;99.90
56298;DHT22;42208;6.376;-10.782;2023-04-26T01:43:37;25.10;99.90
56298;DHT22;42208;6.376;-10.782;2023-04-26T01:46:05;25.10;99.90
56298;DHT22;42208;6.376;-10.782;2023-04-26T01:48:33;25.20;99.90
56298;DHT22;42208;6.376;-10.782;2023-04-26T01:51:02;25.20;99.90
56298;DHT22;42208;6.376;-10.782;2023-04-26T01:53:30;25.30;99.90
56298;DHT22;42208;6.376;-10.782;2023-04-26T01:56:02;25.30;99.90
56298;DHT22;42208;6.376;-10.782;2023-04-26T01:58:31;25.30;99.90
56298;DHT22;42208;6.376;-10.782;2023-04-26T02:01:07;25.40;99.90
56298;DHT22;42208;6.376;-10.782;2023-04-26T02:03:36;25.40;99.90
56298;DHT22;42208;6.376;-10.782;2023-04-26T02:06:04;25.40;99.90
56298;DHT22;42208;6.376;-10.782;2023-04-26T02:08:34;25.40;99.90
56298;DHT22;42208;6.376;-10.782;2023-04-26T02:11:02;25.20;99.90
56298;DHT22;42208;6.376;-10.782;2023-04-26T02:13:31;25.10;99.90
56298;DHT22;42208;6.376;-10.782;2023-04-26T02:15:59;25.10;99.90
56298;DHT22;42208;6.376;-10.782;2023-04-26T02:18:27;25.10;99.90
56298;DHT22;42208;6.376;-10.782;2023-04-26T02:20:56;25.10;99.90
56298;DHT22;42208;6.376;-10.782;2023-04-26T02:23:24;25.10;99.90
56298;DHT22;42208;6.376;-10.782;2023-04-26T02:25:52;25.20;99.90
56298;DHT22;42208;6.376;-10.782;2023-04-26T02:28:20;25.10;99.90
56298;DHT22;42208;6.376;-10.782;2023-04-26T02:30:49;25.10;99.90
56298;DHT22;42208;6.376;-10.782;2023-04-26T02:33:17;25.10;99.90
56298;DHT22;42208;6.376;-10.782;2023-04-26T02:35:46;25.10;99.90
56298;DHT22;42208;6.376;-10.782;2023-04-26T02:38:14;25.10;99.90
56298;DHT22;42208;6.376;-10.782;2023-04-26T02:40:43;25.10;99.90
56298;DHT22;42208;6.376;-10.782;2023-04-26T02:43:12;25.00;99.90
56298;DHT22;42208;6.376;-10.782;2023-04-26T02:45:41;25.10;99.90
56298;DHT22;42208;6.376;-10.782;2023-04-26T02:48:11;25.10;99.90
56298;DHT22;42208;6.376;-10.782;2023-04-26T02:50:40;25.10;99.90
56298;DHT22;42208;6.376;-10.782;2023-04-26T02:53:10;25.10;99.90
56298;DHT22;42208;6.376;-10.782;2023-04-26T02:55:39;25.10;99.90
56298;DHT22;42208;6.376;-10.782;2023-04-26T02:58:07;25.10;99.90
56298;DHT22;42208;6.376;-10.782;2023-04-26T03:00:35;25.00;99.90
56298;DHT22;42208;6.376;-10.782;2023-04-26T03:03:04;25.10;99.90
56298;DHT22;42208;6.376;-10.782;2023-04-26T03:05:32;25.10;99.90
56298;DHT22;42208;6.376;-10.782;2023-04-26T03:08:01;25.10;99.90
56298;DHT22;42208;6.376;-10.782;2023-04-26T03:10:29;25.10;99.90
56298;DHT22;42208;6.376;-10.782;2023-04-26T03:12:58;25.10;99.90
56298;DHT22;42208;6.376;-10.782;2023-04-26T03:15:26;25.20;99.90
56298;DHT22;42208;6.376;-10.782;2023-04-26T03:17:54;25.20;99.90
56298;DHT22;42208;6.376;-10.782;2023-04-26T03:20:23;25.20;99.90
56298;DHT22;42208;6.376;-10.782;2023-04-26T03:22:52;25.20;99.90
56298;DHT22;42208;6.376;-10.782;2023-04-26T03:25:20;25.10;99.90
56298;DHT22;42208;6.376;-10.782;2023-04-26T03:27:48;25.10;99.90
56298;DHT22;42208;6.376;-10.782;2023-04-26T03:30:16;25.10;99.90
56298;DHT22;42208;6.376;-10.782;2023-04-26T03:32:45;25.10;99.90
56298;DHT22;42208;6.376;-10.782;2023-04-26T03:35:13;25.00;99.90
56298;DHT22;42208;6.376;-10.782;2023-04-26T03:37:42;25.00;99.90
56298;DHT22;42208;6.376;-10.782;2023-04-26T03:40:12;25.10;99.90
56298;DHT22;42208;6.376;-10.782;2023-04-26T03:42:40;25.10;99.90
56298;DHT22;42208;6.376;-10.782;2023-04-26T03:45:09;25.10;99.90
56298;DHT22;42208;6.376;-10.782;2023-04-26T03:47:37;25.10;99.90
56298;DHT22;42208;6.376;-10.782;2023-04-26T03:50:06;25.10;99.90
56298;DHT22;42208;6.376;-10.782;2023-04-26T03:52:35;25.10;99.90
56298;DHT22;42208;6.376;-10.782;2023-04-26T03:55:04;25.00;99.90
56298;DHT22;42208;6.376;-10.782;2023-04-26T03:57:33;25.10;99.90
56298;DHT22;42208;6.376;-10.782;2023-04-26T04:00:01;25.10;99.90
56298;DHT22;42208;6.376;-10.782;2023-04-26T04:02:30;25.00;99.90
56298;DHT22;42208;6.376;-10.782;2023-04-26T04:04:59;25.00;99.90
56298;DHT22;42208;6.376;-10.782;2023-04-26T04:07:27;25.00;99.90
56298;DHT22;42208;6.376;-10.782;2023-04-26T04:09:55;25.00;99.90
56298;DHT22;42208;6.376;-10.782;2023-04-26T04:12:24;24.90;99.90
56298;DHT22;42208;6.376;-10.782;2023-04-26T04:14:52;24.90;99.90
56298;DHT22;42208;6.376;-10.782;2023-04-26T04:17:22;24.90;99.90
56298;DHT22;42208;6.376;-10.782;2023-04-26T04:19:50;24.90;99.90
56298;DHT22;42208;6.376;-10.782;2023-04-26T04:22:18;24.80;99.90
56298;DHT22;42208;6.376;-10.782;2023-04-26T04:24:47;24.90;99.90
56298;DHT22;42208;6.376;-10.782;2023-04-26T04:27:15;24.90;99.90
56298;DHT22;42208;6.376;-10.782;2023-04-26T04:29:44;24.90;99.90
56298;DHT22;42208;6.376;-10.782;2023-04-26T04:32:13;24.80;99.90
56298;DHT22;42208;6.376;-10.782;2023-04-26T04:34:42;24.90;99.90
56298;DHT22;42208;6.376;-10.782;2023-04-26T04:37:10;24.90;99.90
56298;DHT22;42208;6.376;-10.782;2023-04-26T04:39:39;24.90;99.90
56298;DHT22;42208;6.376;-10.782;2023-04-26T04:42:07;25.00;99.90
56298;DHT22;42208;6.376;-10.782;2023-04-26T04:44:35;25.00;99.90
56298;DHT22;42208;6.376;-10.782;2023-04-26T04:47:04;25.00;99.90
56298;DHT22;42208;6.376;-10.782;2023-04-26T04:49:32;25.00;99.90
56298;DHT22;42208;6.376;-10.782;2023-04-26T04:52:01;24.90;99.90
56298;DHT22;42208;6.376;-10.782;2023-04-26T04:54:29;24.90;99.90
56298;DHT22;42208;6.376;-10.782;2023-04-26T04:56:57;25.00;99.90
56298;DHT22;42208;6.376;-10.782;2023-04-26T04:59:26;24.90;99.90
56298;DHT22;42208;6.376;-10.782;2023-04-26T05:01:55;24.90;99.90
56298;DHT22;42208;6.376;-10.782;2023-04-26T05:04:23;24.90;99.90
56298;DHT22;42208;6.376;-10.782;2023-04-26T05:06:52;24.90;99.90
56298;DHT22;42208;6.376;-10.782;2023-04-26T05:09:22;24.90;99.90
56298;DHT22;42208;6.376;-10.782;2023-04-26T05:11:50;24.90;99.90
56298;DHT22;42208;6.376;-10.782;2023-04-26T05:14:19;24.80;99.90
56298;DHT22;42208;6.376;-10.782;2023-04-26T05:16:47;24.90;99.90
56298;DHT22;42208;6.376;-10.782;2023-04-26T05:19:15;24.80;99.90
56298;DHT22;42208;6.376;-10.782;2023-04-26T05:21:44;24.80;99.90
56298;DHT22;42208;6.376;-10.782;2023-04-26T05:24:12;24.80;99.90
56298;DHT22;42208;6.376;-10.782;2023-04-26T05:26:41;24.70;99.90
56298;DHT22;42208;6.376;-10.782;2023-04-26T05:29:30;24.70;99.90
56298;DHT22;42208;6.376;-10.782;2023-04-26T05:32:06;24.70;99.90
56298;DHT22;42208;6.376;-10.782;2023-04-26T05:34:40;24.70;99.90
56298;DHT22;42208;6.376;-10.782;2023-04-26T05:37:13;24.70;99.90
56298;DHT22;42208;6.376;-10.782;2023-04-26T05:39:42;24.70;99.90
56298;DHT22;42208;6.376;-10.782;2023-04-26T05:42:11;24.70;99.90
56298;DHT22;42208;6.376;-10.782;2023-04-26T05:44:40;24.70;99.90
56298;DHT22;42208;6.376;-10.782;2023-04-26T05:47:08;24.70;99.90
56298;DHT22;42208;6.376;-10.782;2023-04-26T05:49:36;24.70;99.90
56298;DHT22;42208;6.376;-10.782;2023-04-26T05:52:05;24.70;99.90
56298;DHT22;42208;6.376;-10.782;2023-04-26T05:54:34;24.70;99.90
56298;DHT22;42208;6.376;-10.782;2023-04-26T05:57:02;24.70;99.90
56298;DHT22;42208;6.376;-10.782;2023-04-26T05:59:34;24.70;99.90
56298;DHT22;42208;6.376;-10.782;2023-04-26T06:02:02;24.70;99.90
56298;DHT22;42208;6.376;-10.782;2023-04-26T06:04:31;24.70;99.90
56298;DHT22;42208;6.376;-10.782;2023-04-26T06:07:12;24.70;99.90
56298;DHT22;42208;6.376;-10.782;2023-04-26T06:09:40;24.70;99.90
56298;DHT22;42208;6.376;-10.782;2023-04-26T06:12:08;24.60;99.90
56298;DHT22;42208;6.376;-10.782;2023-04-26T06:14:40;24.70;99.90
56298;DHT22;42208;6.376;-10.782;2023-04-26T06:17:13;24.70;99.90
56298;DHT22;42208;6.376;-10.782;2023-04-26T06:19:42;24.70;99.90
56298;DHT22;42208;6.376;-10.782;2023-04-26T06:22:11;24.80;99.90
56298;DHT22;42208;6.376;-10.782;2023-04-26T06:24:39;24.80;99.90
56298;DHT22;42208;6.376;-10.782;2023-04-26T06:27:07;24.70;99.90
56298;DHT22;42208;6.376;-10.782;2023-04-26T06:29:37;24.70;99.90
56298;DHT22;42208;6.376;-10.782;2023-04-26T06:32:06;24.60;99.90
56298;DHT22;42208;6.376;-10.782;2023-04-26T06:34:34;24.50;99.90
56298;DHT22;42208;6.376;-10.782;2023-04-26T06:37:06;24.50;99.90
56298;DHT22;42208;6.376;-10.782;2023-04-26T06:39:38;24.50;99.90
56298;DHT22;42208;6.376;-10.782;2023-04-26T06:42:06;24.50;99.90
56298;DHT22;42208;6.376;-10.782;2023-04-26T06:44:59;24.50;99.90
56298;DHT22;42208;6.376;-10.782;2023-04-26T06:47:30;24.60;99.90
56298;DHT22;42208;6.376;-10.782;2023-04-26T06:49:59;24.60;99.90
56298;DHT22;42208;6.376;-10.782;2023-04-26T06:52:27;24.70;99.90
56298;DHT22;42208;6.376;-10.782;2023-04-26T06:54:55;24.70;99.90
56298;DHT22;42208;6.376;-10.782;2023-04-26T06:57:25;24.70;99.90
56298;DHT22;42208;6.376;-10.782;2023-04-26T06:59:53;24.60;99.90
56298;DHT22;42208;6.376;-10.782;2023-04-26T07:02:21;24.70;99.90
56298;DHT22;42208;6.376;-10.782;2023-04-26T07:04:50;24.70;99.90
56298;DHT22;42208;6.376;-10.782;2023-04-26T07:07:19;24.70;99.90
56298;DHT22;42208;6.376;-10.782;2023-04-26T07:09:47;24.70;99.90
56298;DHT22;42208;6.376;-10.782;2023-04-26T07:12:15;24.70;99.90
56298;DHT22;42208;6.376;-10.782;2023-04-26T07:14:43;24.70;99.90
56298;DHT22;42208;6.376;-10.782;2023-04-26T07:17:11;24.70;99.90
56298;DHT22;42208;6.376;-10.782;2023-04-26T07:19:40;24.70;99.90
56298;DHT22;42208;6.376;-10.782;2023-04-26T07:22:08;24.70;99.90
56298;DHT22;42208;6.376;-10.782;2023-04-26T07:24:36;24.80;99.90
56298;DHT22;42208;6.376;-10.782;2023-04-26T07:27:05;24.80;99.90
56298;DHT22;42208;6.376;-10.782;2023-04-26T07:29:33;24.80;99.90
56298;DHT22;42208;6.376;-10.782;2023-04-26T07:32:01;24.80;99.90
56298;DHT22;42208;6.376;-10.782;2023-04-26T07:34:30;24.80;99.90
56298;DHT22;42208;6.376;-10.782;2023-04-26T07:36:58;24.80;99.90
56298;DHT22;42208;6.376;-10.782;2023-04-26T07:39:26;24.80;99.90
56298;DHT22;42208;6.376;-10.782;2023-04-26T07:41:54;24.80;99.90
56298;DHT22;42208;6.376;-10.782;2023-04-26T07:44:22;24.80;99.90
56298;DHT22;42208;6.376;-10.782;2023-04-26T07:46:51;24.80;99.90
56298;DHT22;42208;6.376;-10.782;2023-04-26T07:49:19;24.90;99.90
56298;DHT22;42208;6.376;-10.782;2023-04-26T07:51:48;24.90;99.90
56298;DHT22;42208;6.376;-10.782;2023-04-26T07:54:16;24.90;99.90
56298;DHT22;42208;6.376;-10.782;2023-04-26T07:56:44;24.90;99.90
56298;DHT22;42208;6.376;-10.782;2023-04-26T07:59:12;24.90;99.90
56298;DHT22;42208;6.376;-10.782;2023-04-26T08:01:40;24.90;99.90
56298;DHT22;42208;6.376;-10.782;2023-04-26T08:04:09;25.00;99.90
56298;DHT22;42208;6.376;-10.782;2023-04-26T08:06:38;25.00;99.90
56298;DHT22;42208;6.376;-10.782;2023-04-26T08:09:06;25.00;99.90
56298;DHT22;42208;6.376;-10.782;2023-04-26T08:11:34;25.00;99.90
56298;DHT22;42208;6.376;-10.782;2023-04-26T08:14:02;25.00;99.90
56298;DHT22;42208;6.376;-10.782;2023-04-26T08:16:31;25.00;99.90
56298;DHT22;42208;6.376;-10.782;2023-04-26T08:18:59;25.00;99.90
56298;DHT22;42208;6.376;-10.782;2023-04-26T08:21:27;25.00;99.90
56298;DHT22;42208;6.376;-10.782;2023-04-26T08:23:55;25.10;99.90
56298;DHT22;42208;6.376;-10.782;2023-04-26T08:26:27;25.10;99.90
56298;DHT22;42208;6.376;-10.782;2023-04-26T08:28:55;25.10;99.90
56298;DHT22;42208;6.376;-10.782;2023-04-26T08:31:23;25.10;99.90
56298;DHT22;42208;6.376;-10.782;2023-04-26T08:33:51;25.10;99.90
56298;DHT22;42208;6.376;-10.782;2023-04-26T08:36:20;25.10;99.90
56298;DHT22;42208;6.376;-10.782;2023-04-26T08:38:49;25.10;99.90
56298;DHT22;42208;6.376;-10.782;2023-04-26T08:41:21;25.10;99.90
56298;DHT22;42208;6.376;-10.782;2023-04-26T08:43:49;25.10;99.90
56298;DHT22;42208;6.376;-10.782;2023-04-26T08:46:18;25.20;99.90
56298;DHT22;42208;6.376;-10.782;2023-04-26T08:48:59;25.30;99.90
56298;DHT22;42208;6.376;-10.782;2023-04-26T08:51:29;25.30;99.90
56298;DHT22;42208;6.376;-10.782;2023-04-26T08:53:59;25.30;99.90
56298;DHT22;42208;6.376;-10.782;2023-04-26T08:56:32;25.40;99.90
56298;DHT22;42208;6.376;-10.782;2023-04-26T08:59:01;25.40;99.90
56298;DHT22;42208;6.376;-10.782;2023-04-26T09:01:29;25.40;99.90
56298;DHT22;42208;6.376;-10.782;2023-04-26T09:03:59;25.40;99.90
56298;DHT22;42208;6.376;-10.782;2023-04-26T09:06:28;25.50;99.90
56298;DHT22;42208;6.376;-10.782;2023-04-26T09:08:57;25.50;99.90
56298;DHT22;42208;6.376;-10.782;2023-04-26T09:11:25;25.50;99.90
56298;DHT22;42208;6.376;-10.782;2023-04-26T09:13:54;25.60;99.90
56298;DHT22;42208;6.376;-10.782;2023-04-26T09:16:35;25.60;99.90
56298;DHT22;42208;6.376;-10.782;2023-04-26T09:19:03;25.60;99.90
56298;DHT22;42208;6.376;-10.782;2023-04-26T09:21:31;25.60;99.90
56298;DHT22;42208;6.376;-10.782;2023-04-26T09:24:00;25.70;99.90
56298;DHT22;42208;6.376;-10.782;2023-04-26T09:26:29;25.70;99.90
56298;DHT22;42208;6.376;-10.782;2023-04-26T09:29:17;25.80;99.90
56298;DHT22;42208;6.376;-10.782;2023-04-26T09:31:48;25.80;99.90
56298;DHT22;42208;6.376;-10.782;2023-04-26T09:34:17;25.90;99.90
56298;DHT22;42208;6.376;-10.782;2023-04-26T09:36:52;25.90;99.90
56298;DHT22;42208;6.376;-10.782;2023-04-26T09:39:39;25.90;99.90
56298;DHT22;42208;6.376;-10.782;2023-04-26T09:42:09;25.90;99.90
56298;DHT22;42208;6.376;-10.782;2023-04-26T09:44:37;26.00;99.90
56298;DHT22;42208;6.376;-10.782;2023-04-26T09:47:08;26.00;99.90
56298;DHT22;42208;6.376;-10.782;2023-04-26T09:49:48;26.10;99.90
56298;DHT22;42208;6.376;-10.782;2023-04-26T09:52:17;26.10;99.90
56298;DHT22;42208;6.376;-10.782;2023-04-26T09:54:53;26.10;99.90
56298;DHT22;42208;6.376;-10.782;2023-04-26T09:57:21;26.10;99.90
56298;DHT22;42208;6.376;-10.782;2023-04-26T09:59:52;26.20;99.90
56298;DHT22;42208;6.376;-10.782;2023-04-26T10:02:22;26.20;99.90
56298;DHT22;42208;6.376;-10.782;2023-04-26T10:04:53;26.20;99.90
56298;DHT22;42208;6.376;-10.782;2023-04-26T10:07:23;26.30;99.90
56298;DHT22;42208;6.376;-10.782;2023-04-26T10:09:52;26.30;99.90
56298;DHT22;42208;6.376;-10.782;2023-04-26T10:12:22;26.30;99.90
56298;DHT22;42208;6.376;-10.782;2023-04-26T10:14:50;26.40;99.90
56298;DHT22;42208;6.376;-10.782;2023-04-26T10:17:19;26.40;99.90
56298;DHT22;42208;6.376;-10.782;2023-04-26T10:19:50;26.40;99.90
56298;DHT22;42208;6.376;-10.782;2023-04-26T10:22:29;26.40;99.90
56298;DHT22;42208;6.376;-10.782;2023-04-26T10:24:58;26.50;99.90
56298;DHT22;42208;6.376;-10.782;2023-04-26T10:30:15;26.70;99.90
56298;DHT22;42208;6.376;-10.782;2023-04-26T10:35:28;26.70;99.90
56298;DHT22;42208;6.376;-10.782;2023-04-26T10:40:29;26.70;99.90
56298;DHT22;42208;6.376;-10.782;2023-04-26T10:45:39;26.90;99.90
56298;DHT22;42208;6.376;-10.782;2023-04-26T10:48:15;27.00;99.90
56298;DHT22;42208;6.376;-10.782;2023-04-26T10:59:09;27.30;99.90
56298;DHT22;42208;6.376;-10.782;2023-04-26T11:01:41;27.40;99.90
56298;DHT22;42208;6.376;-10.782;2023-04-26T11:04:10;27.40;99.90
56298;DHT22;42208;6.376;-10.782;2023-04-26T11:06:55;27.40;99.90
56298;DHT22;42208;6.376;-10.782;2023-04-26T11:12:06;27.20;99.90
56298;DHT22;42208;6.376;-10.782;2023-04-26T11:14:40;27.30;99.90
56298;DHT22;42208;6.376;-10.782;2023-04-26T11:17:09;27.20;99.90
56298;DHT22;42208;6.376;-10.782;2023-04-26T11:19:37;27.30;99.90
56298;DHT22;42208;6.376;-10.782;2023-04-26T11:22:07;27.30;99.90
56298;DHT22;42208;6.376;-10.782;2023-04-26T11:24:35;27.40;99.90
56298;DHT22;42208;6.376;-10.782;2023-04-26T11:27:08;27.50;99.90
56298;DHT22;42208;6.376;-10.782;2023-04-26T11:29:37;27.50;99.90
56298;DHT22;42208;6.376;-10.782;2023-04-26T11:32:05;27.60;99.90
56298;DHT22;42208;6.376;-10.782;2023-04-26T11:34:35;27.60;99.90
56298;DHT22;42208;6.376;-10.782;2023-04-26T11:37:07;27.70;99.90
56298;DHT22;42208;6.376;-10.782;2023-04-26T11:39:36;27.80;99.90
56298;DHT22;42208;6.376;-10.782;2023-04-26T11:42:08;27.80;99.90
56298;DHT22;42208;6.376;-10.782;2023-04-26T11:44:39;27.80;99.90
56298;DHT22;42208;6.376;-10.782;2023-04-26T11:47:08;27.90;99.90
56298;DHT22;42208;6.376;-10.782;2023-04-26T11:49:37;27.90;99.90
56298;DHT22;42208;6.376;-10.782;2023-04-26T11:52:05;28.00;99.90
56298;DHT22;42208;6.376;-10.782;2023-04-26T11:54:36;28.10;99.90
56298;DHT22;42208;6.376;-10.782;2023-04-26T11:57:15;28.10;99.90
56298;DHT22;42208;6.376;-10.782;2023-04-26T11:59:45;28.10;99.90
56298;DHT22;42208;6.376;-10.782;2023-04-26T12:02:13;28.10;99.90
56298;DHT22;42208;6.376;-10.782;2023-04-26T12:04:42;28.10;99.90
56298;DHT22;42208;6.376;-10.782;2023-04-26T12:07:10;28.20;99.90
56298;DHT22;42208;6.376;-10.782;2023-04-26T12:09:40;28.20;99.90
56298;DHT22;42208;6.376;-10.782;2023-04-26T12:12:10;28.20;99.90
56298;DHT22;42208;6.376;-10.782;2023-04-26T12:14:39;28.30;99.90
56298;DHT22;42208;6.376;-10.782;2023-04-26T12:17:08;28.30;99.90
56298;DHT22;42208;6.376;-10.782;2023-04-26T12:19:37;28.20;99.90
56298;DHT22;42208;6.376;-10.782;2023-04-26T12:22:06;28.20;99.90
56298;DHT22;42208;6.376;-10.782;2023-04-26T12:24:37;28.20;99.90
56298;DHT22;42208;6.376;-10.782;2023-04-26T12:27:05;28.20;99.90
56298;DHT22;42208;6.376;-10.782;2023-04-26T12:29:34;28.30;99.90
56298;DHT22;42208;6.376;-10.782;2023-04-26T12:32:02;28.40;99.90
56298;DHT22;42208;6.376;-10.782;2023-04-26T12:34:31;28.40;99.90
56298;DHT22;42208;6.376;-10.782;2023-04-26T12:36:59;28.40;99.90
56298;DHT22;42208;6.376;-10.782;2023-04-26T12:39:27;28.50;99.90
56298;DHT22;42208;6.376;-10.782;2023-04-26T12:41:56;28.50;99.90
56298;DHT22;42208;6.376;-10.782;2023-04-26T12:44:24;28.50;99.90
56298;DHT22;42208;6.376;-10.782;2023-04-26T12:46:52;28.60;99.90
56298;DHT22;42208;6.376;-10.782;2023-04-26T12:49:21;28.70;99.90
56298;DHT22;42208;6.376;-10.782;2023-04-26T12:51:49;28.60;99.90
56298;DHT22;42208;6.376;-10.782;2023-04-26T12:54:17;28.70;99.90
56298;DHT22;42208;6.376;-10.782;2023-04-26T12:56:45;28.70;99.90
56298;DHT22;42208;6.376;-10.782;2023-04-26T12:59:14;28.70;99.90
56298;DHT22;42208;6.376;-10.782;2023-04-26T13:01:42;28.70;99.90
56298;DHT22;42208;6.376;-10.782;2023-04-26T13:04:10;28.70;99.90
56298;DHT22;42208;6.376;-10.782;2023-04-26T13:06:39;28.70;99.90
56298;DHT22;42208;6.376;-10.782;2023-04-26T13:09:07;28.70;99.90
56298;DHT22;42208;6.376;-10.782;2023-04-26T13:11:36;28.70;99.90
56298;DHT22;42208;6.376;-10.782;2023-04-26T13:14:04;28.70;99.90
56298;DHT22;42208;6.376;-10.782;2023-04-26T13:16:33;28.60;99.90
56298;DHT22;42208;6.376;-10.782;2023-04-26T13:19:01;28.60;99.90
56298;DHT22;42208;6.376;-10.782;2023-04-26T13:21:29;28.70;99.90
56298;DHT22;42208;6.376;-10.782;2023-04-26T13:23:57;28.70;99.90
56298;DHT22;42208;6.376;-10.782;2023-04-26T13:26:26;28.70;99.90
56298;DHT22;42208;6.376;-10.782;2023-04-26T13:28:54;28.70;99.90
56298;DHT22;42208;6.376;-10.782;2023-04-26T13:31:22;28.80;99.90
56298;DHT22;42208;6.376;-10.782;2023-04-26T13:33:51;28.80;99.90
56298;DHT22;42208;6.376;-10.782;2023-04-26T13:36:19;28.80;99.90
56298;DHT22;42208;6.376;-10.782;2023-04-26T13:38:47;28.70;99.90
56298;DHT22;42208;6.376;-10.782;2023-04-26T13:41:16;28.70;99.90
56298;DHT22;42208;6.376;-10.782;2023-04-26T13:43:44;28.70;99.90
56298;DHT22;42208;6.376;-10.782;2023-04-26T13:46:12;28.60;99.90
56298;DHT22;42208;6.376;-10.782;2023-04-26T13:48:40;28.60;99.90
56298;DHT22;42208;6.376;-10.782;2023-04-26T13:51:09;28.60;99.90
56298;DHT22;42208;6.376;-10.782;2023-04-26T13:53:37;28.70;99.90
56298;DHT22;42208;6.376;-10.782;2023-04-26T13:56:05;28.80;99.90
56298;DHT22;42208;6.376;-10.782;2023-04-26T13:58:34;28.80;99.90
56298;DHT22;42208;6.376;-10.782;2023-04-26T14:01:02;28.70;99.90
56298;DHT22;42208;6.376;-10.782;2023-04-26T14:03:31;28.80;99.90
56298;DHT22;42208;6.376;-10.782;2023-04-26T14:05:59;28.80;99.90
56298;DHT22;42208;6.376;-10.782;2023-04-26T14:08:28;28.80;99.90
56298;DHT22;42208;6.376;-10.782;2023-04-26T14:10:56;28.80;99.90
56298;DHT22;42208;6.376;-10.782;2023-04-26T14:13:24;28.70;99.90
56298;DHT22;42208;6.376;-10.782;2023-04-26T14:15:52;28.70;99.90
56298;DHT22;42208;6.376;-10.782;2023-04-26T14:18:20;28.60;99.90
56298;DHT22;42208;6.376;-10.782;2023-04-26T14:20:49;28.60;99.90
56298;DHT22;42208;6.376;-10.782;2023-04-26T14:23:17;28.60;99.90
56298;DHT22;42208;6.376;-10.782;2023-04-26T14:25:45;28.60;99.90
56298;DHT22;42208;6.376;-10.782;2023-04-26T14:28:18;28.60;99.90
56298;DHT22;42208;6.376;-10.782;2023-04-26T14:30:46;28.60;99.90
56298;DHT22;42208;6.376;-10.782;2023-04-26T14:33:15;28.60;99.90
56298;DHT22;42208;6.376;-10.782;2023-04-26T14:35:43;28.70;99.90
56298;DHT22;42208;6.376;-10.782;2023-04-26T14:38:11;28.70;99.90
56298;DHT22;42208;6.376;-10.782;2023-04-26T14:40:40;28.70;99.90
56298;DHT22;42208;6.376;-10.782;2023-04-26T14:43:08;28.70;99.90
56298;DHT22;42208;6.376;-10.782;2023-04-26T14:45:37;28.70;99.90
56298;DHT22;42208;6.376;-10.782;2023-04-26T14:48:11;28.70;99.90
56298;DHT22;42208;6.376;-10.782;2023-04-26T14:50:39;28.70;99.90
56298;DHT22;42208;6.376;-10.782;2023-04-26T14:53:08;28.80;99.90
56298;DHT22;42208;6.376;-10.782;2023-04-26T14:55:36;28.70;99.90
56298;DHT22;42208;6.376;-10.782;2023-04-26T14:58:04;28.70;99.90
56298;DHT22;42208;6.376;-10.782;2023-04-26T15:00:33;28.80;99.90
56298;DHT22;42208;6.376;-10.782;2023-04-26T15:03:01;28.90;99.90
56298;DHT22;42208;6.376;-10.782;2023-04-26T15:05:29;29.00;99.90
56298;DHT22;42208;6.376;-10.782;2023-04-26T15:07:58;29.00;99.90
56298;DHT22;42208;6.376;-10.782;2023-04-26T15:10:26;29.10;99.90
56298;DHT22;42208;6.376;-10.782;2023-04-26T15:12:55;29.10;99.90
56298;DHT22;42208;6.376;-10.782;2023-04-26T15:15:23;29.10;99.90
56298;DHT22;42208;6.376;-10.782;2023-04-26T15:17:51;29.00;99.90
56298;DHT22;42208;6.376;-10.782;2023-04-26T15:20:20;29.10;99.90
56298;DHT22;42208;6.376;-10.782;2023-04-26T15:22:48;29.20;99.90
56298;DHT22;42208;6.376;-10.782;2023-04-26T15:25:16;29.10;99.90
56298;DHT22;42208;6.376;-10.782;2023-04-26T15:27:45;29.20;99.90
56298;DHT22;42208;6.376;-10.782;2023-04-26T15:30:13;29.30;99.90
56298;DHT22;42208;6.376;-10.782;2023-04-26T15:32:41;29.40;99.90
56298;DHT22;42208;6.376;-10.782;2023-04-26T15:35:12;29.50;99.90
56298;DHT22;42208;6.376;-10.782;2023-04-26T15:37:40;29.60;99.90
56298;DHT22;42208;6.376;-10.782;2023-04-26T15:40:09;29.60;99.90
56298;DHT22;42208;6.376;-10.782;2023-04-26T15:42:39;29.70;99.90
56298;DHT22;42208;6.376;-10.782;2023-04-26T15:45:08;29.60;99.90
56298;DHT22;42208;6.376;-10.782;2023-04-26T15:47:36;29.60;99.90
56298;DHT22;42208;6.376;-10.782;2023-04-26T15:50:05;29.50;99.90